AirNav   Air Wisconsin Up To $57,000 Bonus
 
 1184 users online  

NH69 Windsock Village Airport
West Ossipee, New Hampshire, USA

GOING TO WEST OSSIPEE?


FAA INFORMATION EFFECTIVE 05 DECEMBER 2019

Location

FAA Identifier: NH69
Lat/Long: 43-49-34.5200N 071-11-05.3800W
43-49.575333N 071-11.089667W
43.8262556,-71.1848278
(estimated)
Elevation: 460 ft. / 140 m (estimated)
Variation: 17W (1990)
From city: 1 mile E of WEST OSSIPEE, NH
Time zone: UTC -5 (UTC -4 during Daylight Saving Time)
Zip code: 03814

Airport Operations

Airport use: Private use. Permission required prior to landing
Activation date: 05/1992
Control tower: no
ARTCC: BOSTON CENTER
FSS: BANGOR FLIGHT SERVICE STATION
Attendance: IREG IREG
Wind indicator: yes
Segmented circle: no
Lights: ACTVT LIRL RY 15/33 - 122.7.

Airport Communications

UNICOM: 123.05
WX ASOS at IZG (14 nm NE): 135.775 (207-935-2882)
WX AWOS-3PT at LCI (18 nm SW): 133.525 (603-524-5134)

Nearby radio navigation aids

VOR radial/distance  VOR name  Freq  Var
ENEr331/34.5KENNEBUNK VOR/DME117.1017W

 
NDB name  Hdg/Dist  Freq  Var  ID
MAHN163/38.738617WGMA --. -- .-
ROLLINS353/39.526016WESG . ... --.

Airport Services

Runway Information

Runway 15/33

Dimensions: 4000 x 225 ft. / 1219 x 69 m
Surface: turf
Runway edge lights: low intensity
RUNWAY 15  RUNWAY 33
Traffic pattern: leftleft

Airport Ownership and Management from official FAA records

Ownership: Privately-owned
Owner: WINDSOCK VILLAGE AV CORP
BOX 512
WEST OSSIPEE, NH 03890
Phone 207-370-5168
Manager: WINDSOCK VILLAGE AV CORP
BOX 512
WEST OSSIPEE, NH 03890
Phone 207-370-5168

Airport Operational Statistics

Aircraft based on the field: 25
Single engine airplanes: 22
Gliders airplanes: 2
Ultralights: 1
    

Additional Remarks

FOR CD CTC BOSTON ARTCC AT 603-879-6859.

Instrument Procedures

There are no published instrument procedures at NH69.

Some nearby airports with instrument procedures:

KIZG - Eastern Slopes Regional Airport (14 nm NE)
KLCI - Laconia Municipal Airport (18 nm SW)
KSFM - Sanford Seacoast Regional Airport (33 nm SE)
KDAW - Skyhaven Airport (34 nm S)
KHIE - Mount Washington Regional Airport (36 nm NW)
 
Loc | Ops | Rwys | IFR | FBO | Links
Com | Nav | Svcs | Stats | Notes

Auburn-Lewiston Municipal Airport
 
Area around NH69 (Windsock Village Airport)
 
Road maps at: MapQuest Bing Google
 
Aerial photo
WARNING: Photo may not be current or correct
Aerial photo of NH69 (Windsock Village Airport)
Do you have a better or more recent aerial photo of Windsock Village Airport that you would like to share? If so, please send us your photo.

 
Sectional chart

 
Airport distance calculator
Flying to Windsock Village Airport? Find the distance to fly.

From to NH69

Sunrise and sunset
Times for 09-Dec-2019
 Local
(UTC-5)
 Zulu
(UTC)
Morning civil twilight06:3511:35
Sunrise07:0812:08
Sunset16:0621:06
Evening civil twilight16:3921:39

Current date and time
Zulu (UTC)  09-Dec-2019 22:41:05
Local (UTC-5)  09-Dec-2019 17:41:05
 
METAR
KIZG 
14nm NE 
092215Z AUTO 00000KT 1 1/2SM UP BR OVC005 01/01 A2985 RMK AO2 P0002 T00110006
KLCI 
19nm SW 
092156Z AUTO 00000KT 3/4SM RA BR OVC003 02/02 A2984 RMK AO2 UPE2057RAB2057 SLP112 P0004 T00220022 FZRANO
TAF
KHIE 
36nm NW 
091725Z 0918/1018 00000KT P6SM -RA OVC060 FM092100 VRB03KT 5SM -RA OVC040 WS020/20040KT TEMPO 0921/0924 2SM -RA BR OVC012 FM100300 24005KT 5SM -RA OVC030
KPWM 
40nm E 
091951Z 0920/1018 17012G20KT 3SM -RA BR OVC003 WS020/22040KT FM092200 13005KT 1 1/2SM -RA BR OVC004 WS020/22040KT FM100000 18010G17KT 1 1/2SM -RA BR OVC003 WS020/21050KT FM101000 22007KT 6SM BR OVC012
KCON 
40nm S 
091725Z 0918/1018 00000KT 1SM RA BR OVC007 WS020/23040KT TEMPO 0918/0922 1/4SM RA FG FM092200 14005KT 1 1/2SM -RA BR OVC004 WS020/19045KT FM100000 17010KT 2SM -RA OVC004 WS020/21055KT FM100900 21006KT P6SM OVC012
NOTAMs
Click for the latest NOTAMs
NOTAMs are issued by the DoD/FAA and will open in a separate window not controlled by AirNav.

 

 
 

Would you like to see your business listed on this page?

 If your business provides an interesting product or service to pilots, flight crews, aircraft, or users of the Windsock Village Airport, you should consider listing it here.  To start the listing process, click on the button below
 
Add a business
 

Other Pages about Windsock Village Airport

Update a link
 
Copyright © AirNav, LLC. All rights reserved. Privacy Policy  Contact